This is the latest recevied weather packets stored in our database for station/object K2CCS. If no packets are shown the sender has not sent any weather packets the latest 1 day(s).
| Time | Temp. | Humidity | Pressure | Rain* | Wind** | Luminosity | Snow |
|---|---|---|---|---|---|---|---|
| 1778010274 | 20° C | 71% | 1009.6 hPa | 0 mm | 1.34 m/s, 197° | 86 W/m² | - |
| 1778009974 | 20° C | 69% | 1009.5 hPa | 1.78 mm | 0.89 m/s, 212° | 98 W/m² | - |
| 1778009672 | 20° C | 70% | 1009 hPa | 1.78 mm | 2.24 m/s, 215° | 124 W/m² | - |
| 1778009370 | 20° C | 68% | 1009.3 hPa | 1.27 mm | 1.34 m/s, 304° | 31 W/m² | - |
| 1778009068 | 19.44° C | 66% | 1007.9 hPa | 4.32 mm | 3.58 m/s, 233° | 23 W/m² | - |
| 1778008765 | 18.89° C | 73% | 1008.3 hPa | 7.11 mm | 3.13 m/s, 192° | 30 W/m² | - |
| 1778008464 | 21.67° C | 69% | 1008.6 hPa | 4.32 mm | 2.24 m/s, 224° | 32 W/m² | - |
| 1778008160 | 26.11° C | 41% | 1007.6 hPa | 0 mm | 1.34 m/s, 253° | 32 W/m² | - |
| 1778007856 | 26.11° C | 38% | 1007 hPa | 0 mm | 2.24 m/s, 233° | 50 W/m² | - |
| 1778007551 | 26.67° C | 37% | 1006.6 hPa | 0 mm | 1.34 m/s, 158° | 55 W/m² | - |
| 1778007249 | 26.67° C | 37% | 1006.6 hPa | 0 mm | 2.24 m/s, 178° | 200 W/m² | - |
| 1778006944 | 26.11° C | 40% | 1006.5 hPa | 0 mm | 2.24 m/s, 164° | 96 W/m² | - |
| 1778006641 | 26.11° C | 44% | 1006.8 hPa | 0 mm | 0.89 m/s, 156° | 77 W/m² | - |
| 1778006339 | 26.67° C | 43% | 1006.7 hPa | 0 mm | 0.45 m/s, 129° | 57 W/m² | - |
| 1778006035 | 26.11° C | 44% | 1006.6 hPa | 0 mm | 0.89 m/s, 172° | 138 W/m² | - |
| 1778005732 | 26.67° C | 44% | 1006.5 hPa | 0 mm | 1.34 m/s, 150° | 152 W/m² | - |
| 1778005429 | 26.11° C | 44% | 1006.6 hPa | 0 mm | 2.24 m/s, 164° | 147 W/m² | - |
| 1778005126 | 26.11° C | 44% | 1006.9 hPa | 0 mm | 1.34 m/s, 126° | 104 W/m² | - |
| 1778004823 | 26.11° C | 44% | 1006.6 hPa | 0 mm | 0.89 m/s, 189° | 128 W/m² | - |
| 1778004519 | 26.67° C | 44% | 1006.3 hPa | 0 mm | 0.89 m/s, 121° | 126 W/m² | - |
| 1778004216 | 27.22° C | 43% | 1006.5 hPa | 0 mm | 1.34 m/s, 132° | 254 W/m² | - |
| 1778003912 | 26.67° C | 44% | 1006.8 hPa | 0 mm | 0.89 m/s, 133° | 214 W/m² | - |
| 1778003609 | 27.22° C | 43% | 1006.9 hPa | 0 mm | 1.79 m/s, 108° | 211 W/m² | - |
| 1778003305 | 27.22° C | 42% | 1007.1 hPa | 0 mm | 2.68 m/s, 171° | 235 W/m² | - |
| 1778003003 | 26.11° C | 45% | 1007.2 hPa | 0 mm | 0.45 m/s, 161° | 544 W/m² | - |
* Rain latest hour (hover to see other rain measurements)
** Current wind speed in m/s (hover to see current wind gust speed)